Cedarglen — VCLN — position and weather

sailwx.info

Track history (hours):
 
Tides and Currents Weather Stations Pressure Air Temp Water Temp Dewpoint Dewpoint Depression Visibility Wind Speed Wind Dir Waves Ship Positions

Cedarglen

ex Cartierdoc

Last reported at 2017-Dec-29 20:39 UTC. Time now 2018-Feb-22 06:49 UTC.
Position N 45°28' W 073°30'.
Warning: this ship's position is 54 days out of date.

Length 222 m; draft 8.2 m.

Type: Cargo ship. MMSI: 316001838.

Date/timePositionNaut miles runAvg speedWind from/ knotsBaromVisibWave heightAir tempDewpointWater temp
2017-Dec-29 20:39N 45°28' W 073°30'1 3.9
2017-Dec-29 20:28N 45°27' W 073°30'2 4.5
2017-Dec-29 20:00N 45°25' W 073°31'3 1.9
2017-Dec-29 18:43N 45°24' W 073°34'0 0.6
2017-Dec-29 18:30N 45°24' W 073°34'0 0.0
2017-Dec-29 18:00N 45°24' W 073°34'0 0.0
2017-Dec-29 17:29N 45°24' W 073°34'0 0.0
2017-Dec-29 17:00N 45°24' W 073°34'0 0.0
2017-Dec-29 15:49N 45°24' W 073°34'0 0.6
2017-Dec-29 15:30N 45°24' W 073°35'1 1.6
2017-Dec-29 15:00N 45°24' W 073°36'1 1.0
2017-Dec-29 14:05N 45°24' W 073°37'0 0.0
2017-Dec-28 02:29N 45°24' W 073°37'1 2.6
2017-Dec-28 02:00N 45°24' W 073°39'2 4.2
2017-Dec-28 01:30N 45°25' W 073°42'4 7.7
2017-Dec-28 01:00N 45°24' W 073°47'510.6
2017-Dec-28 00:30N 45°21' W 073°53'2 4.5
2017-Dec-28 00:00N 45°19' W 073°55'0 0.2
2017-Dec-27 23:30N 45°19' W 073°55'0 0.2
2017-Dec-27 23:00N 45°19' W 073°55'1 1.3
2017-Dec-27 22:30N 45°18' W 073°56'0 0.2
2017-Dec-27 22:00N 45°18' W 073°56'1 1.0
2017-Dec-27 21:30N 45°18' W 073°56'0 0.6
2017-Dec-27 21:00N 45°17' W 073°56'0 0.0
2017-Dec-27 20:30N 45°17' W 073°56'0 0.0
2017-Dec-27 20:00N 45°17' W 073°56'0 0.0
2017-Dec-27 19:30N 45°17' W 073°56'0 0.7
2017-Dec-27 19:00N 45°17' W 073°56'0 0.7
2017-Dec-27 18:30N 45°17' W 073°57'1 1.3
2017-Dec-27 18:00N 45°16' W 073°57'1 3.0
2017-Dec-27 17:30N 45°15' W 073°58'0 0.5
2017-Dec-27 17:00N 45°15' W 073°59'0 0.0
2017-Dec-27 16:30N 45°15' W 073°59'0 0.0
2017-Dec-27 16:00N 45°15' W 073°59'0 0.0
2017-Dec-27 15:30N 45°15' W 073°59'0 0.0
2017-Dec-27 15:00N 45°15' W 073°59'0 0.0
2017-Dec-27 14:30N 45°15' W 073°59'0 0.0
2017-Dec-27 14:00N 45°15' W 073°59'1 2.3
2017-Dec-27 13:30N 45°14' W 073°60'5 8.9
2017-Dec-27 12:57N 45°14' W 074°07'6 1.2
2017-Dec-27 08:25N 45°14' W 074°15'0 0.0
2017-Dec-27 07:55N 45°14' W 074°15'0 0.0
2017-Dec-27 07:25N 45°14' W 074°15'0 0.0
2017-Dec-26 23:25N 45°14' W 074°15'  
Track history (hours):
 
Tides and Currents Weather Stations Pressure Air Temp Water Temp Dewpoint Dewpoint Depression Visibility Wind Speed Wind Dir Waves Ship Positions

Cedarglen

ex Cartierdoc

Last reported at 2017-Dec-29 20:39 UTC. Time now 2018-Feb-22 06:49 UTC.
Position N 45°28' W 073°30'.
Warning: this ship's position is 54 days out of date.

Length 222 m; draft 8.2 m.

Type: Cargo ship. MMSI: 316001838.

Date/timePositionNaut miles runAvg speedWind from/ knotsBaromVisibWave heightAir tempDewpointWater temp
2017-Dec-29 20:39N 45°28' W 073°30'1 3.9
2017-Dec-29 20:28N 45°27' W 073°30'2 4.5
2017-Dec-29 20:00N 45°25' W 073°31'3 1.9
2017-Dec-29 18:43N 45°24' W 073°34'0 0.6
2017-Dec-29 18:30N 45°24' W 073°34'0 0.0
2017-Dec-29 18:00N 45°24' W 073°34'0 0.0
2017-Dec-29 17:29N 45°24' W 073°34'0 0.0
2017-Dec-29 17:00N 45°24' W 073°34'0 0.0
2017-Dec-29 15:49N 45°24' W 073°34'0 0.6
2017-Dec-29 15:30N 45°24' W 073°35'1 1.6
2017-Dec-29 15:00N 45°24' W 073°36'1 1.0
2017-Dec-29 14:05N 45°24' W 073°37'0 0.0
2017-Dec-28 02:29N 45°24' W 073°37'1 2.6
2017-Dec-28 02:00N 45°24' W 073°39'2 4.2
2017-Dec-28 01:30N 45°25' W 073°42'4 7.7
2017-Dec-28 01:00N 45°24' W 073°47'510.6
2017-Dec-28 00:30N 45°21' W 073°53'2 4.5
2017-Dec-28 00:00N 45°19' W 073°55'0 0.2
2017-Dec-27 23:30N 45°19' W 073°55'0 0.2
2017-Dec-27 23:00N 45°19' W 073°55'1 1.3
2017-Dec-27 22:30N 45°18' W 073°56'0 0.2
2017-Dec-27 22:00N 45°18' W 073°56'1 1.0
2017-Dec-27 21:30N 45°18' W 073°56'0 0.6
2017-Dec-27 21:00N 45°17' W 073°56'0 0.0
2017-Dec-27 20:30N 45°17' W 073°56'0 0.0
2017-Dec-27 20:00N 45°17' W 073°56'0 0.0
2017-Dec-27 19:30N 45°17' W 073°56'0 0.7
2017-Dec-27 19:00N 45°17' W 073°56'0 0.7
2017-Dec-27 18:30N 45°17' W 073°57'1 1.3
2017-Dec-27 18:00N 45°16' W 073°57'1 3.0
2017-Dec-27 17:30N 45°15' W 073°58'0 0.5
2017-Dec-27 17:00N 45°15' W 073°59'0 0.0
2017-Dec-27 16:30N 45°15' W 073°59'0 0.0
2017-Dec-27 16:00N 45°15' W 073°59'0 0.0
2017-Dec-27 15:30N 45°15' W 073°59'0 0.0
2017-Dec-27 15:00N 45°15' W 073°59'0 0.0
2017-Dec-27 14:30N 45°15' W 073°59'0 0.0
2017-Dec-27 14:00N 45°15' W 073°59'1 2.3
2017-Dec-27 13:30N 45°14' W 073°60'5 8.9
2017-Dec-27 12:57N 45°14' W 074°07'6 1.2
2017-Dec-27 08:25N 45°14' W 074°15'0 0.0
2017-Dec-27 07:55N 45°14' W 074°15'0 0.0
2017-Dec-27 07:25N 45°14' W 074°15'0 0.0
2017-Dec-26 23:25N 45°14' W 074°15'  

Dump ship's entire track history